Řízení letového provozu České republiky
Letiste: LKMT Aktualizace: 22.07.2019 15:00:31  UTC
 METAR LKMT 22.07. 15:00 ...
METAR LKMT 221500Z 05008KT CAVOK 27/11 Q1021 NOSIG RMK REG QNH 1019=
 TAF LKMT 22.07. 11:00 ...
TAF LKMT 221100Z 2212/2318 VRB02KT CAVOK      TEMPO 2212/2218 24010KT 8000 -SHRA SCT040TCU      BECMG 2300/2302 03010KT 9999 BKN030      TEMPO 2302/2315 6000 -RA BKN017=